createdAt,value
2022-12-25T00:01:10.270Z,77993.88
2022-12-25T00:03:37.707Z,78003.81
2022-12-25T00:06:04.313Z,78011.75
2022-12-25T00:08:31.273Z,78021.69
2022-12-25T00:11:02.711Z,78025.69
2022-12-25T00:13:29.354Z,78031.66
2022-12-25T00:15:56.217Z,78041.59
2022-12-25T00:18:23.231Z,78037.59
2022-12-25T00:20:59.956Z,78053.50
2022-12-25T00:23:27.046Z,78061.47
2022-12-25T00:25:54.257Z,78067.44
2022-12-25T00:28:21.202Z,78075.38
2022-12-25T00:30:48.079Z,78073.41
2022-12-25T00:33:14.841Z,78085.31
2022-12-25T00:35:41.294Z,78089.28
2022-12-25T00:38:08.177Z,78087.31
2022-12-25T00:40:34.572Z,78091.28
2022-12-25T00:43:00.945Z,78087.31
2022-12-25T00:45:27.360Z,78105.19
2022-12-25T00:47:53.795Z,78109.19
2022-12-25T00:50:20.356Z,78125.09
2022-12-25T00:52:46.817Z,78123.09
2022-12-25T00:55:13.297Z,78131.03
2022-12-25T00:57:39.733Z,78137.00
2022-12-25T01:00:06.964Z,78144.97
2022-12-25T01:02:33.388Z,78152.91
2022-12-25T01:04:59.856Z,78158.88
2022-12-25T01:07:26.823Z,78152.91
2022-12-25T01:10:12.036Z,78158.88
2022-12-25T01:12:41.937Z,78150.94
2022-12-25T01:15:10.619Z,78160.88
2022-12-25T01:17:37.182Z,78162.84
2022-12-25T01:20:04.188Z,78168.81
2022-12-25T01:22:30.610Z,78184.72
2022-12-25T01:24:57.033Z,78194.66
2022-12-25T01:27:23.409Z,78202.63
2022-12-25T01:29:49.749Z,78188.69
2022-12-25T01:32:16.136Z,78200.63
2022-12-25T01:34:42.528Z,78200.63
2022-12-25T01:37:08.933Z,78208.59
2022-12-25T01:39:35.305Z,78208.59
2022-12-25T01:42:01.677Z,78212.56
2022-12-25T01:44:37.316Z,78216.53
2022-12-25T01:47:05.448Z,78222.50
2022-12-25T01:49:36.821Z,78222.50
2022-12-25T01:52:12.026Z,78236.41
2022-12-25T01:54:43.799Z,78254.31
2022-12-25T01:57:17.095Z,78268.22
2022-12-25T01:59:43.649Z,78274.19
2022-12-25T02:02:10.205Z,78302.03
2022-12-25T02:04:43.944Z,78321.91
2022-12-25T02:07:16.414Z,78325.88
2022-12-25T02:09:43.947Z,78335.81
2022-12-25T02:12:18.539Z,78339.81
2022-12-25T02:14:45.511Z,78341.78
2022-12-25T02:17:30.214Z,78349.75
2022-12-25T02:20:34.099Z,78351.72
2022-12-25T02:23:37.956Z,78347.75
2022-12-25T02:26:16.898Z,78355.72
2022-12-25T02:29:00.857Z,78359.69
2022-12-25T02:31:50.673Z,78365.66
2022-12-25T02:34:34.475Z,78363.66
2022-12-25T02:37:09.797Z,78369.63
2022-12-25T02:39:59.583Z,78369.63
2022-12-25T02:43:22.703Z,78377.56
2022-12-25T02:46:13.731Z,78385.53
2022-12-25T02:49:03.944Z,78389.50
2022-12-25T02:51:53.210Z,78393.47
2022-12-25T02:54:44.951Z,78391.50
2022-12-25T02:57:33.355Z,78401.44
2022-12-25T03:00:20.205Z,78395.47
2022-12-25T03:03:07.566Z,78395.47
2022-12-25T03:05:57.273Z,78381.56
2022-12-25T03:08:28.139Z,78389.50
2022-12-25T03:11:20.193Z,78375.59
2022-12-25T03:13:51.287Z,78379.56
2022-12-25T03:16:36.883Z,78365.66
2022-12-25T03:19:26.940Z,78379.56
2022-12-25T03:22:13.470Z,78403.44
2022-12-25T03:24:59.744Z,78423.31
2022-12-25T03:27:29.454Z,78447.16
2022-12-25T03:30:14.581Z,78461.09
2022-12-25T03:32:51.777Z,78471.03
2022-12-25T03:35:30.207Z,78484.94
2022-12-25T03:38:44.717Z,78480.97
2022-12-25T03:41:34.990Z,78482.94
2022-12-25T03:44:35.155Z,78486.94
2022-12-25T03:47:32.995Z,78504.81
2022-12-25T03:50:36.971Z,78498.88
2022-12-25T03:53:28.282Z,78506.81
2022-12-25T03:56:14.644Z,78496.88
2022-12-25T03:59:10.591Z,78508.81
2022-12-25T04:01:55.465Z,78530.69
2022-12-25T04:04:40.739Z,78548.56
2022-12-25T04:07:25.532Z,78552.53
2022-12-25T04:10:10.343Z,78542.59
2022-12-25T04:12:55.132Z,78528.69
2022-12-25T04:15:50.514Z,78530.69
2022-12-25T04:18:35.302Z,78538.63
2022-12-25T04:21:20.173Z,78546.59
2022-12-25T04:24:05.110Z,78568.44
2022-12-25T04:26:49.884Z,78590.31
2022-12-25T04:29:34.744Z,78598.28
2022-12-25T04:32:19.893Z,78604.25
2022-12-25T04:35:05.037Z,78622.13
2022-12-25T04:37:31.416Z,78630.09
2022-12-25T04:39:57.822Z,78647.97
2022-12-25T04:42:24.209Z,78661.91
2022-12-25T04:44:50.592Z,78661.91
2022-12-25T04:47:16.967Z,78638.03
2022-12-25T04:49:43.335Z,78638.03
2022-12-25T04:52:09.715Z,78657.94
2022-12-25T04:54:37.966Z,78667.88
2022-12-25T04:57:05.000Z,78673.84
2022-12-25T04:59:31.399Z,78673.84
2022-12-25T05:01:57.839Z,78685.75
2022-12-25T05:04:24.385Z,78689.75
2022-12-25T05:06:50.754Z,78685.75
2022-12-25T05:09:17.148Z,78691.72
2022-12-25T05:11:43.647Z,78673.84
2022-12-25T05:14:10.003Z,78667.88
2022-12-25T05:16:36.516Z,78685.75
2022-12-25T05:19:02.950Z,78707.63
2022-12-25T05:21:29.319Z,78711.63
2022-12-25T05:23:55.692Z,78717.59
2022-12-25T05:26:25.115Z,78737.47
2022-12-25T05:28:51.608Z,78733.50
2022-12-25T05:31:18.545Z,78737.47
2022-12-25T05:33:45.033Z,78707.63
2022-12-25T05:36:12.877Z,78699.69
2022-12-25T05:38:39.451Z,78707.63
2022-12-25T05:41:05.878Z,78693.72
2022-12-25T05:43:32.413Z,78703.66
2022-12-25T05:46:03.411Z,78713.59
2022-12-25T05:48:29.813Z,78719.56
2022-12-25T05:50:56.223Z,78717.59
2022-12-25T05:53:22.623Z,78711.63
2022-12-25T05:55:49.260Z,78701.66
2022-12-25T05:58:15.813Z,78709.63
2022-12-25T06:00:43.904Z,78713.59
2022-12-25T06:03:10.418Z,78711.63
2022-12-25T06:05:39.469Z,78715.59
2022-12-25T06:08:06.062Z,78709.63
2022-12-25T06:10:32.521Z,78711.63
2022-12-25T06:12:58.990Z,78729.50
2022-12-25T06:15:25.435Z,78733.50
2022-12-25T06:17:51.835Z,78741.44
2022-12-25T06:20:18.241Z,78763.31
2022-12-25T06:22:44.626Z,78781.22
2022-12-25T06:25:11.107Z,78789.16
2022-12-25T06:27:37.555Z,78775.25
2022-12-25T06:30:05.160Z,78789.16
2022-12-25T06:32:31.554Z,78795.13
2022-12-25T06:34:57.947Z,78763.31
2022-12-25T06:37:24.421Z,78765.31
2022-12-25T06:39:50.808Z,78755.34
2022-12-25T06:42:17.186Z,78753.38
2022-12-25T06:44:44.473Z,78751.38
2022-12-25T06:47:11.266Z,78761.31
2022-12-25T06:49:37.625Z,78753.38
2022-12-25T06:52:04.067Z,78729.50
2022-12-25T06:54:30.469Z,78741.44
2022-12-25T06:56:56.981Z,78751.38
2022-12-25T06:59:23.386Z,78755.34
2022-12-25T07:01:53.120Z,78757.34
2022-12-25T07:04:26.904Z,78765.31
2022-12-25T07:06:53.545Z,78779.22
2022-12-25T07:09:19.895Z,78757.34
2022-12-25T07:11:46.378Z,78769.28
2022-12-25T07:14:24.193Z,78777.22
2022-12-25T07:16:51.189Z,78781.22
2022-12-25T07:19:17.651Z,78779.22
2022-12-25T07:21:44.062Z,78765.31
2022-12-25T07:24:10.786Z,78761.31
2022-12-25T07:26:37.193Z,78769.28
2022-12-25T07:29:03.630Z,78785.19
2022-12-25T07:31:30.151Z,78787.19
2022-12-25T07:33:56.537Z,78779.22
2022-12-25T07:36:22.914Z,78783.19
2022-12-25T07:38:50.180Z,78789.16
2022-12-25T07:41:17.177Z,78789.16
2022-12-25T07:43:43.728Z,78787.19
2022-12-25T07:46:10.750Z,78789.16
2022-12-25T07:48:37.295Z,78805.06
2022-12-25T07:51:10.769Z,78789.16
2022-12-25T07:53:38.240Z,78785.19
2022-12-25T07:56:07.542Z,78781.22
2022-12-25T07:58:34.737Z,78777.22
2022-12-25T08:01:07.407Z,78777.22
2022-12-25T08:03:35.025Z,78779.22
2022-12-25T08:06:06.107Z,78763.31
2022-12-25T08:08:33.266Z,78761.31
2022-12-25T08:11:00.335Z,78767.28
2022-12-25T08:13:29.832Z,78759.34
2022-12-25T08:16:01.176Z,78745.41
2022-12-25T08:18:30.259Z,78741.44
2022-12-25T08:21:01.469Z,78731.50
2022-12-25T08:23:28.022Z,78733.50
2022-12-25T08:26:04.453Z,78721.56
2022-12-25T08:28:33.171Z,78723.53
2022-12-25T08:30:59.744Z,78725.53
2022-12-25T08:33:26.211Z,78715.59
2022-12-25T08:35:52.613Z,78707.63
2022-12-25T08:38:19.142Z,78705.66
2022-12-25T08:40:45.511Z,78705.66
2022-12-25T08:43:11.940Z,78681.78
2022-12-25T08:45:38.361Z,78673.84
2022-12-25T08:48:04.797Z,78673.84
2022-12-25T08:50:31.312Z,78673.84
2022-12-25T08:52:57.687Z,78661.91
2022-12-25T08:55:24.093Z,78665.88
2022-12-25T08:57:53.292Z,78657.94
2022-12-25T09:00:20.135Z,78647.97
2022-12-25T09:02:46.762Z,78632.06
2022-12-25T09:05:13.331Z,78638.03
2022-12-25T09:07:39.748Z,78630.09
2022-12-25T09:10:07.177Z,78630.09
2022-12-25T09:12:33.670Z,78620.16
2022-12-25T09:15:00.203Z,78624.13
2022-12-25T09:17:26.624Z,78608.22
2022-12-25T09:19:53.040Z,78614.19
2022-12-25T09:22:19.517Z,78600.25
2022-12-25T09:24:45.913Z,78590.31
2022-12-25T09:27:12.325Z,78574.41
2022-12-25T09:29:39.165Z,78580.38
2022-12-25T09:32:05.966Z,78556.53
2022-12-25T09:34:33.431Z,78556.53
2022-12-25T09:36:59.931Z,78548.56
2022-12-25T09:39:26.768Z,78530.69
2022-12-25T09:42:05.198Z,78524.72
2022-12-25T09:44:40.735Z,78498.88
2022-12-25T09:47:13.696Z,78486.94
2022-12-25T09:49:57.345Z,78459.09
2022-12-25T09:52:35.323Z,78455.13
2022-12-25T09:55:19.772Z,78463.06
2022-12-25T09:57:51.247Z,78455.13
2022-12-25T10:00:20.761Z,78429.28
2022-12-25T10:03:21.595Z,78423.31
2022-12-25T10:06:30.205Z,78419.31
2022-12-25T10:09:18.445Z,78431.25
2022-12-25T10:11:53.924Z,78435.25
2022-12-25T10:14:45.773Z,78433.25
2022-12-25T10:17:45.271Z,78439.22
2022-12-25T10:20:14.663Z,78429.28
2022-12-25T10:22:45.694Z,78407.41
2022-12-25T10:25:18.855Z,78393.47
2022-12-25T10:27:45.297Z,78385.53
2022-12-25T10:30:21.065Z,78377.56
2022-12-25T10:32:48.574Z,78377.56
2022-12-25T10:35:18.940Z,78347.75
2022-12-25T10:37:52.896Z,78341.78
2022-12-25T10:40:51.703Z,78317.94
2022-12-25T10:43:25.456Z,78311.97
2022-12-25T10:45:51.897Z,78313.94
2022-12-25T10:48:22.690Z,78300.03
2022-12-25T10:50:49.618Z,78288.09
2022-12-25T10:53:25.966Z,78292.09
2022-12-25T10:56:01.225Z,78282.16
2022-12-25T10:58:28.764Z,78274.19
2022-12-25T11:00:59.645Z,78248.34
2022-12-25T11:03:38.853Z,78244.38
2022-12-25T11:06:07.185Z,78226.47
2022-12-25T11:08:34.871Z,78224.50
2022-12-25T11:11:06.421Z,78222.50
2022-12-25T11:13:47.455Z,78198.66
2022-12-25T11:16:26.353Z,78168.81
2022-12-25T11:18:54.403Z,78166.84
2022-12-25T11:21:36.728Z,78178.75
2022-12-25T11:24:06.186Z,78176.78
2022-12-25T11:26:53.531Z,78176.78
2022-12-25T11:29:40.127Z,78164.84
2022-12-25T11:32:16.062Z,78168.81
2022-12-25T11:34:45.771Z,78152.91
2022-12-25T11:37:20.038Z,78139.00
2022-12-25T11:39:46.575Z,78117.13
2022-12-25T11:42:32.258Z,78115.16
2022-12-25T11:45:05.247Z,78107.19
2022-12-25T11:47:48.600Z,78101.22
2022-12-25T11:50:25.415Z,78099.25
2022-12-25T11:52:53.108Z,78075.38
2022-12-25T11:55:40.083Z,78075.38
2022-12-25T11:58:15.689Z,78059.47
2022-12-25T12:00:45.087Z,78057.50
2022-12-25T12:03:24.000Z,78027.66
2022-12-25T12:05:59.876Z,78025.69
2022-12-25T12:08:27.527Z,78001.81
2022-12-25T12:11:16.417Z,78009.78
2022-12-25T12:14:15.233Z,77991.88
2022-12-25T12:16:41.705Z,78007.78
2022-12-25T12:19:27.597Z,77997.84
2022-12-25T12:21:57.174Z,77989.91
2022-12-25T12:24:28.352Z,77977.97
2022-12-25T12:27:24.632Z,77970.00
2022-12-25T12:29:55.497Z,77972.00
2022-12-25T12:32:38.373Z,77950.13
2022-12-25T12:35:18.212Z,77940.19
2022-12-25T12:37:57.147Z,77930.25
2022-12-25T12:40:25.593Z,77940.19
2022-12-25T12:42:53.253Z,77924.28
2022-12-25T12:45:25.685Z,77928.28
2022-12-25T12:47:53.298Z,77930.25
2022-12-25T12:50:33.718Z,77930.25
2022-12-25T12:53:15.267Z,77924.28
2022-12-25T12:55:41.735Z,77928.28
2022-12-25T12:58:25.063Z,77938.22
2022-12-25T13:01:11.714Z,77920.31
2022-12-25T13:03:57.874Z,77930.25
2022-12-25T13:07:07.956Z,77948.16
2022-12-25T13:10:18.836Z,77940.19
2022-12-25T13:12:46.010Z,77940.19
2022-12-25T13:15:14.249Z,77938.22
2022-12-25T13:17:45.042Z,77932.25
2022-12-25T13:20:25.012Z,77924.28
2022-12-25T13:22:53.180Z,77934.22
2022-12-25T13:25:23.845Z,77914.34
2022-12-25T13:27:57.694Z,77926.28
2022-12-25T13:30:24.995Z,77902.44
2022-12-25T13:32:51.648Z,77922.31
2022-12-25T13:35:21.144Z,77928.28
2022-12-25T13:37:47.918Z,77910.38
2022-12-25T13:40:27.294Z,77940.19
2022-12-25T13:43:00.875Z,77916.34
2022-12-25T13:45:30.483Z,77910.38
2022-12-25T13:47:57.435Z,77898.44
2022-12-25T13:50:31.628Z,77888.50
2022-12-25T13:53:10.235Z,77906.41
2022-12-25T13:55:36.711Z,77914.34
2022-12-25T13:58:07.294Z,77926.28
2022-12-25T14:00:39.390Z,77924.28
2022-12-25T14:03:07.543Z,77902.44
2022-12-25T14:05:42.268Z,77912.38
2022-12-25T14:08:22.762Z,77908.38
2022-12-25T14:10:51.150Z,77918.31
2022-12-25T14:13:20.995Z,77904.41
2022-12-25T14:15:48.836Z,77898.44
2022-12-25T14:18:17.274Z,77906.41
2022-12-25T14:21:04.488Z,77918.31
2022-12-25T14:23:43.010Z,77918.31
2022-12-25T14:26:21.375Z,77918.31
2022-12-25T14:28:53.859Z,77920.31
2022-12-25T14:31:21.432Z,77912.38
2022-12-25T14:33:48.974Z,77918.31
2022-12-25T14:36:15.900Z,77914.34
2022-12-25T14:38:43.954Z,77908.38
2022-12-25T14:41:33.375Z,77914.34
2022-12-25T14:44:02.623Z,77924.28
2022-12-25T14:46:32.181Z,77920.31
2022-12-25T14:49:00.983Z,77914.34
2022-12-25T14:51:28.188Z,77898.44
2022-12-25T14:54:04.098Z,77898.44
2022-12-25T14:56:38.034Z,77906.41
2022-12-25T14:59:05.467Z,77906.41
2022-12-25T15:01:35.925Z,77898.44
2022-12-25T15:04:11.422Z,77894.47
2022-12-25T15:06:53.539Z,77880.56
2022-12-25T15:09:20.021Z,77902.44
2022-12-25T15:11:53.415Z,77894.47
2022-12-25T15:14:19.822Z,77892.47
2022-12-25T15:16:48.975Z,77878.56
2022-12-25T15:19:37.692Z,77880.56
2022-12-25T15:22:05.545Z,77866.63
2022-12-25T15:24:32.019Z,77864.66
2022-12-25T15:27:00.258Z,77866.63
2022-12-25T15:29:52.193Z,77856.69
2022-12-25T15:32:19.693Z,77858.69
2022-12-25T15:34:49.529Z,77858.69
2022-12-25T15:37:18.001Z,77844.78
2022-12-25T15:39:44.577Z,77846.75
2022-12-25T15:42:13.567Z,77842.78
2022-12-25T15:44:41.313Z,77826.88
2022-12-25T15:47:12.000Z,77836.81
2022-12-25T15:49:38.388Z,77822.91
2022-12-25T15:52:10.460Z,77810.97
2022-12-25T15:54:36.862Z,77812.97
2022-12-25T15:57:05.519Z,77809.00
2022-12-25T15:59:32.781Z,77805.00
2022-12-25T16:02:01.295Z,77797.06
2022-12-25T16:04:28.788Z,77795.06
2022-12-25T16:06:56.053Z,77795.06
2022-12-25T16:09:23.010Z,77795.06
2022-12-25T16:11:50.233Z,77781.16
2022-12-25T16:14:16.874Z,77781.16
2022-12-25T16:16:43.370Z,77781.16
2022-12-25T16:19:09.915Z,77769.22
2022-12-25T16:21:42.704Z,77757.31
2022-12-25T16:24:09.276Z,77775.19
2022-12-25T16:26:35.938Z,77757.31
2022-12-25T16:29:06.986Z,77741.41
2022-12-25T16:31:34.297Z,77747.38
2022-12-25T16:34:01.479Z,77759.28
2022-12-25T16:36:27.899Z,77755.31
2022-12-25T16:38:54.282Z,77761.28
2022-12-25T16:41:21.725Z,77747.38
2022-12-25T16:43:48.340Z,77743.41
2022-12-25T16:46:18.075Z,77737.44
2022-12-25T16:48:44.879Z,77735.44
2022-12-25T16:51:13.618Z,77731.47
2022-12-25T16:53:40.207Z,77715.56
2022-12-25T16:56:12.092Z,77713.56
2022-12-25T16:58:38.456Z,77715.56
2022-12-25T17:01:10.297Z,77695.69
2022-12-25T17:03:37.275Z,77701.66
2022-12-25T17:06:05.070Z,77691.72
2022-12-25T17:08:31.444Z,77703.63
2022-12-25T17:10:57.872Z,77687.72
2022-12-25T17:13:24.266Z,77669.84
2022-12-25T17:15:51.025Z,77655.94
2022-12-25T17:18:21.719Z,77655.94
2022-12-25T17:20:53.128Z,77659.91
2022-12-25T17:23:20.856Z,77636.06
2022-12-25T17:25:47.226Z,77642.00
2022-12-25T17:28:13.705Z,77614.19
2022-12-25T17:30:40.143Z,77612.19
2022-12-25T17:33:06.556Z,77620.16
2022-12-25T17:35:36.039Z,77620.16
2022-12-25T17:38:02.511Z,77604.25
2022-12-25T17:40:29.825Z,77594.31
2022-12-25T17:42:56.296Z,77598.28
2022-12-25T17:45:22.712Z,77596.28
2022-12-25T17:47:49.138Z,77596.28
2022-12-25T17:50:15.633Z,77580.41
2022-12-25T17:52:42.386Z,77584.38
2022-12-25T17:55:09.046Z,77578.41
2022-12-25T17:57:35.593Z,77578.41
2022-12-25T18:00:02.009Z,77570.44
2022-12-25T18:02:29.938Z,77568.47
2022-12-25T18:04:57.013Z,77554.56
2022-12-25T18:07:23.457Z,77542.63
2022-12-25T18:09:49.822Z,77544.63
2022-12-25T18:12:16.216Z,77548.59
2022-12-25T18:14:42.720Z,77544.63
2022-12-25T18:17:09.311Z,77544.63
2022-12-25T18:19:35.759Z,77534.69
2022-12-25T18:22:02.155Z,77536.66
2022-12-25T18:24:28.561Z,77532.69
2022-12-25T18:26:54.982Z,77538.66
2022-12-25T18:29:21.457Z,77526.72
2022-12-25T18:31:47.952Z,77532.69
2022-12-25T18:34:14.648Z,77520.75
2022-12-25T18:36:41.230Z,77532.69
2022-12-25T18:39:07.924Z,77520.75
2022-12-25T18:41:54.308Z,77512.81
2022-12-25T18:44:20.685Z,77504.84
2022-12-25T18:46:47.093Z,77508.84
2022-12-25T18:49:13.454Z,77496.91
2022-12-25T18:51:39.857Z,77496.91
2022-12-25T18:54:06.268Z,77492.94
2022-12-25T18:56:33.134Z,77494.91
2022-12-25T18:59:00.607Z,77504.84
2022-12-25T19:01:27.104Z,77492.94
2022-12-25T19:03:57.307Z,77477.03
2022-12-25T19:06:28.270Z,77484.97
2022-12-25T19:08:55.736Z,77477.03
2022-12-25T19:11:22.938Z,77481.00
2022-12-25T19:13:49.597Z,77488.97
2022-12-25T19:16:16.417Z,77477.03
2022-12-25T19:18:42.945Z,77459.13
2022-12-25T19:21:09.801Z,77457.16
2022-12-25T19:23:37.829Z,77441.25
2022-12-25T19:26:08.972Z,77451.19
2022-12-25T19:28:36.532Z,77439.25
2022-12-25T19:31:07.280Z,77435.28
2022-12-25T19:33:35.386Z,77435.28
2022-12-25T19:36:04.303Z,77439.25
2022-12-25T19:38:30.976Z,77441.25
2022-12-25T19:41:00.939Z,77431.31
2022-12-25T19:43:29.896Z,77429.31
2022-12-25T19:45:56.663Z,77433.31
2022-12-25T19:48:23.688Z,77417.41
2022-12-25T19:50:50.308Z,77419.38
2022-12-25T19:53:17.493Z,77403.50
2022-12-25T19:55:44.993Z,77417.41
2022-12-25T19:58:11.907Z,77415.41
2022-12-25T20:00:38.529Z,77411.44
2022-12-25T20:03:05.038Z,77415.41
2022-12-25T20:05:31.584Z,77397.53
2022-12-25T20:07:57.953Z,77401.50
2022-12-25T20:10:24.555Z,77373.66
2022-12-25T20:12:51.205Z,77379.63
2022-12-25T20:15:17.654Z,77373.66
2022-12-25T20:17:46.622Z,77377.66
2022-12-25T20:20:13.170Z,77377.66
2022-12-25T20:22:39.705Z,77371.69
2022-12-25T20:25:09.078Z,77365.72
2022-12-25T20:27:35.625Z,77353.78
2022-12-25T20:30:02.208Z,77337.91
2022-12-25T20:32:29.448Z,77349.81
2022-12-25T20:34:55.870Z,77339.88
2022-12-25T20:37:22.768Z,77333.91
2022-12-25T20:39:49.153Z,77325.97
2022-12-25T20:42:15.542Z,77327.97
2022-12-25T20:44:41.898Z,77323.97
2022-12-25T20:47:08.811Z,77318.03
2022-12-25T20:49:35.339Z,77327.97
2022-12-25T20:52:05.560Z,77314.03
2022-12-25T20:54:32.298Z,77306.09
2022-12-25T20:56:58.667Z,77312.06
2022-12-25T20:59:25.256Z,77306.09
2022-12-25T21:01:54.089Z,77282.25
2022-12-25T21:04:20.821Z,77282.25
2022-12-25T21:06:47.251Z,77272.31
2022-12-25T21:09:13.704Z,77288.22
2022-12-25T21:11:40.167Z,77260.38
2022-12-25T21:14:06.675Z,77270.31
2022-12-25T21:16:33.191Z,77266.34
2022-12-25T21:18:59.773Z,77246.47
2022-12-25T21:21:26.761Z,77240.50
2022-12-25T21:23:56.057Z,77254.41
2022-12-25T21:26:27.687Z,77252.44
2022-12-25T21:28:57.384Z,77244.47
2022-12-25T21:31:24.349Z,77242.50
2022-12-25T21:33:54.401Z,77248.44
2022-12-25T21:36:34.266Z,77250.44
2022-12-25T21:39:03.924Z,77234.53
2022-12-25T21:41:31.740Z,77214.66
2022-12-25T21:43:58.670Z,77230.56
2022-12-25T21:46:25.857Z,77226.59
2022-12-25T21:48:52.787Z,77214.66
2022-12-25T21:51:57.448Z,77212.69
2022-12-25T21:54:23.836Z,77208.69
2022-12-25T21:56:50.623Z,77208.69
2022-12-25T21:59:21.048Z,77214.66
2022-12-25T22:01:48.339Z,77224.59
2022-12-25T22:04:16.405Z,77212.69
2022-12-25T22:07:18.644Z,77210.69
2022-12-25T22:09:47.201Z,77202.75
2022-12-25T22:12:34.529Z,77222.63
2022-12-25T22:15:06.623Z,77214.66
2022-12-25T22:17:59.645Z,77210.69
2022-12-25T22:20:34.755Z,77192.81
2022-12-25T22:23:01.734Z,77174.91
2022-12-25T22:25:28.184Z,77192.81
2022-12-25T22:27:54.780Z,77184.84
2022-12-25T22:30:28.346Z,77174.91
2022-12-25T22:32:55.671Z,77164.97
2022-12-25T22:35:22.607Z,77161.00
2022-12-25T22:37:49.757Z,77155.03
2022-12-25T22:40:18.510Z,77155.03
2022-12-25T22:42:44.950Z,77157.03
2022-12-25T22:45:12.242Z,77157.03
2022-12-25T22:47:38.733Z,77141.13
2022-12-25T22:50:07.183Z,77143.13
2022-12-25T22:52:33.568Z,77149.06
2022-12-25T22:55:00.024Z,77125.22
2022-12-25T22:57:26.563Z,77127.22
2022-12-25T22:59:53.259Z,77105.34
2022-12-25T23:02:20.173Z,77111.31
2022-12-25T23:04:46.836Z,77123.25
2022-12-25T23:07:14.505Z,77105.34
2022-12-25T23:09:41.717Z,77113.31
2022-12-25T23:12:28.534Z,77103.38
2022-12-25T23:14:55.702Z,77111.31
2022-12-25T23:17:40.846Z,77105.34
2022-12-25T23:20:26.632Z,77123.25
2022-12-25T23:23:11.561Z,77103.38
2022-12-25T23:25:56.202Z,77093.44
2022-12-25T23:28:41.052Z,77111.31
2022-12-25T23:31:07.716Z,77119.25
2022-12-25T23:33:34.195Z,77101.38
2022-12-25T23:36:00.658Z,77105.34
2022-12-25T23:38:27.038Z,77089.44
2022-12-25T23:40:53.500Z,77095.41
2022-12-25T23:43:19.923Z,77079.50
2022-12-25T23:45:46.427Z,77083.50
2022-12-25T23:48:12.838Z,77075.53
2022-12-25T23:50:39.248Z,77083.50
2022-12-25T23:53:05.669Z,77073.56
2022-12-25T23:55:33.861Z,77075.53
2022-12-25T23:58:00.306Z,77091.44
